Time;durP1;ratioP1;P1;durP2;ratioP2;P2;SDS_P1;SDS_P2;PMS_P1;PMS_P2;Temp;Humidity;BMP_temperature;BMP_pressure;BME280_temperature;BME280_humidity;BME280_pressure;Samples;Min_cycle;Max_cycle;Signal;HPM_P1;HPM_P2
2022/11/12 00:00:53;;;;;;;12.00;6.97;;;;;;;30.21;51.09;100853.06;5086329;27;65678;-41
2022/11/12 00:03:43;;;;;;;17.67;6.90;;;;;;;30.12;51.74;100838.13;5092323;27;69630;-43
2022/11/12 00:06:32;;;;;;;19.52;11.15;;;;;;;30.30;52.82;100863.66;5089399;27;66190;-41
2022/11/12 00:09:21;;;;;;;41.17;23.70;;;;;;;30.33;57.07;100863.22;5089126;27;70133;-42
2022/11/12 00:12:11;;;;;;;42.15;29.70;;;;;;;30.37;59.34;100864.44;5088064;27;66416;-44
2022/11/12 00:15:00;;;;;;;48.92;31.73;;;;;;;30.44;60.45;100862.53;5085121;27;69437;-42
2022/11/12 00:17:50;;;;;;;56.58;32.65;;;;;;;30.47;62.10;100865.63;5086954;27;66298;-41
2022/11/12 00:20:40;;;;;;;59.03;30.98;;;;;;;30.54;65.42;100862.91;5086581;27;70862;-44
2022/11/12 00:23:29;;;;;;;41.05;27.77;;;;;;;30.53;60.82;100852.28;5086313;27;65562;-43
2022/11/12 00:26:18;;;;;;;51.30;25.20;;;;;;;30.62;60.25;100868.06;5092471;27;70554;-42
2022/11/12 00:29:07;;;;;;;59.80;24.88;;;;;;;30.67;60.19;100873.63;5079602;27;65994;-42
2022/11/12 00:31:57;;;;;;;45.25;21.00;;;;;;;30.71;59.84;100872.13;5087112;27;69477;-42
2022/11/12 00:34:46;;;;;;;43.97;23.23;;;;;;;30.78;60.18;100880.19;5080019;27;66513;-41
2022/11/12 00:37:34;;;;;;;48.78;22.73;;;;;;;30.83;60.77;100885.00;5083227;27;69908;-42
2022/11/12 00:40:24;;;;;;;47.03;22.05;;;;;;;30.86;60.99;100879.13;5085721;27;65699;-42
2022/11/12 00:43:13;;;;;;;50.92;21.58;;;;;;;30.92;60.69;100883.66;5080675;27;69968;-42
2022/11/12 00:46:02;;;;;;;36.65;20.58;;;;;;;30.97;60.96;100883.03;5090912;27;66212;-42
2022/11/12 00:48:51;;;;;;;25.13;18.00;;;;;;;30.99;60.60;100879.03;5083280;27;69913;-41
2022/11/12 00:51:41;;;;;;;27.02;18.02;;;;;;;31.03;60.56;100893.78;5092069;27;66492;-43
2022/11/12 00:54:30;;;;;;;25.90;16.15;;;;;;;31.02;60.55;100894.84;5080912;27;70204;-41
2022/11/12 00:57:19;;;;;;;30.50;16.92;;;;;;;31.06;60.41;100896.06;5087861;27;64943;-42
2022/11/12 01:00:14;;;;;;;24.10;16.10;;;;;;;31.09;59.83;100906.47;5084430;27;70372;-43
2022/11/12 01:03:03;;;;;;;19.77;15.48;;;;;;;31.10;60.19;100916.25;5091745;27;66569;-42
2022/11/12 01:05:52;;;;;;;29.08;16.50;;;;;;;31.12;60.21;100922.28;5087207;27;70781;-42
2022/11/12 01:08:42;;;;;;;19.67;14.68;;;;;;;31.14;60.29;100917.44;5091336;27;66212;-42
2022/11/12 01:11:31;;;;;;;17.15;13.70;;;;;;;31.16;59.90;100918.06;5087364;27;69806;-41
2022/11/12 01:14:20;;;;;;;24.42;14.07;;;;;;;31.04;59.79;100898.19;5085000;27;65693;-42
2022/11/12 01:17:09;;;;;;;22.90;14.43;;;;;;;31.20;60.09;100923.88;5085712;27;70454;-43
2022/11/12 01:19:59;;;;;;;26.13;15.05;;;;;;;31.24;62.47;100932.41;5082879;27;66433;-42
2022/11/12 01:22:48;;;;;;;19.95;13.98;;;;;;;31.26;61.53;100920.28;5087109;27;70231;-43
2022/11/12 01:25:38;;;;;;;18.25;13.80;;;;;;;31.29;62.14;100927.16;5082676;27;66701;-43
2022/11/12 01:28:28;;;;;;;14.70;13.07;;;;;;;30.86;62.84;100847.47;5084218;27;69446;-42
2022/11/12 01:31:45;;;;;;;16.08;13.15;;;;;;;31.34;62.89;100921.88;5083748;27;65863;-42
2022/11/12 01:34:34;;;;;;;17.42;12.05;;;;;;;31.29;62.67;100917.13;5090239;27;69924;-41
2022/11/12 01:37:24;;;;;;;14.25;12.00;;;;;;;31.37;62.52;100940.44;5085547;27;65631;-42
2022/11/12 01:40:13;;;;;;;15.13;11.85;;;;;;;31.39;62.64;100930.19;5083018;27;70316;-40
2022/11/12 01:43:03;;;;;;;15.77;11.82;;;;;;;31.39;62.60;100949.19;5095609;27;66817;-40
2022/11/12 01:45:53;;;;;;;13.15;11.57;;;;;;;31.42;62.23;100942.47;5083638;27;70158;-42
2022/11/12 01:48:56;;;;;;;12.50;10.95;;;;;;;31.41;62.96;100957.91;5075551;27;65732;-41
2022/11/12 01:51:49;;;;;;;14.68;11.05;;;;;;;30.95;62.17;100872.38;5088069;27;68723;-41
2022/11/12 01:54:40;;;;;;;14.38;11.13;;;;;;;31.10;62.04;100891.88;5082479;27;65742;-41
2022/11/12 01:57:42;;;;;;;11.93;10.77;;;;;;;30.94;62.40;100860.72;5086856;27;69398;-42
2022/11/12 02:00:32;;;;;;;13.80;11.30;;;;;;;31.46;62.04;100949.97;5088167;27;67357;-43
2022/11/12 02:03:23;;;;;;;13.35;10.98;;;;;;;31.48;62.01;100945.16;5088603;27;70293;-43
2022/11/12 02:06:15;;;;;;;13.75;11.10;;;;;;;31.44;61.93;100935.78;5098865;27;66233;-41
2022/11/12 02:09:05;;;;;;;15.27;11.25;;;;;;;31.43;61.75;100928.72;5075002;27;69923;-41
2022/11/12 02:11:54;;;;;;;11.70;9.75;;;;;;;31.55;61.66;100948.59;5079696;27;65953;-41
2022/11/12 02:14:43;;;;;;;12.55;10.40;;;;;;;31.57;61.48;100948.41;5093793;27;70358;-41
2022/11/12 02:17:33;;;;;;;11.15;10.05;;;;;;;31.56;61.66;100934.00;5088297;27;65731;-42
2022/11/12 02:20:23;;;;;;;10.60;9.52;;;;;;;31.60;61.37;100947.94;5087859;27;69244;-41
2022/11/12 02:23:12;;;;;;;10.25;9.25;;;;;;;31.59;61.44;100941.72;5088893;27;66844;-42
2022/11/12 02:26:01;;;;;;;10.27;9.20;;;;;;;31.63;61.31;100949.38;5081444;27;70915;-41
2022/11/12 02:28:50;;;;;;;11.05;9.93;;;;;;;31.64;61.13;100945.63;5082137;27;65732;-41
2022/11/12 02:31:39;;;;;;;10.38;9.48;;;;;;;31.60;60.96;100940.63;5089697;27;70205;-42
2022/11/12 02:34:29;;;;;;;9.55;8.55;;;;;;;31.11;60.78;100855.59;5087192;27;65475;-41
2022/11/12 02:37:18;;;;;;;10.00;8.93;;;;;;;31.57;60.61;100924.81;5087063;27;70550;-42
2022/11/12 02:40:08;;;;;;;12.57;9.70;;;;;;;31.72;60.35;100937.19;5084612;27;65832;-41
2022/11/12 02:42:58;;;;;;;10.43;9.18;;;;;;;31.74;60.51;100935.09;5084199;27;69432;-41
2022/11/12 02:45:47;;;;;;;10.10;9.10;;;;;;;31.76;60.57;100943.81;5085228;27;66558;-41
2022/11/12 02:48:36;;;;;;;9.70;8.80;;;;;;;31.67;60.06;100924.28;5097677;27;70295;-42
2022/11/12 02:51:25;;;;;;;12.40;8.80;;;;;;;31.79;59.84;100936.06;5081844;27;65732;-40
2022/11/12 02:54:15;;;;;;;10.93;8.48;;;;;;;31.84;59.79;100940.78;5084966;27;69428;-41
2022/11/12 02:57:04;;;;;;;11.27;9.52;;;;;;;31.78;59.70;100920.00;5084143;27;67066;-41
2022/11/12 02:59:53;;;;;;;9.90;8.68;;;;;;;31.59;59.71;100883.91;5087306;27;69602;-41
2022/11/12 03:02:42;;;;;;;14.52;8.88;;;;;;;31.91;59.72;100947.03;5083880;27;66360;-41
2022/11/12 03:05:33;;;;;;;10.63;9.48;;;;;;;31.47;59.36;100854.00;5082042;27;70608;-41
2022/11/12 03:08:23;;;;;;;9.45;8.43;;;;;;;31.94;59.51;100933.00;5082551;27;66814;-40
2022/11/12 03:11:15;;;;;;;9.57;8.88;;;;;;;31.99;59.17;100938.59;5083201;27;70619;-41
2022/11/12 03:14:04;;;;;;;9.63;8.65;;;;;;;31.97;59.00;100929.00;5088231;27;66366;-41
2022/11/12 03:16:53;;;;;;;8.77;8.07;;;;;;;32.03;59.11;100934.34;5082424;27;70081;-41
2022/11/12 03:19:43;;;;;;;8.95;8.25;;;;;;;32.04;59.21;100930.59;5082441;27;66208;-41
2022/11/12 03:22:32;;;;;;;11.77;9.02;;;;;;;32.10;59.18;100928.03;5081635;27;71127;-41
2022/11/12 03:25:21;;;;;;;9.70;8.93;;;;;;;32.10;58.77;100928.03;5083140;27;66602;-41
2022/11/12 03:28:15;;;;;;;8.68;7.95;;;;;;;32.14;59.19;100926.50;5082867;27;69337;-42
2022/11/12 03:31:04;;;;;;;9.65;8.75;;;;;;;32.15;58.89;100925.44;5083599;27;67283;-42
2022/11/12 03:33:53;;;;;;;8.98;8.18;;;;;;;32.18;58.73;100914.97;5100192;27;70147;-40
2022/11/12 03:36:42;;;;;;;11.25;8.93;;;;;;;32.21;58.55;100919.13;5088046;27;66693;-42
2022/11/12 03:39:31;;;;;;;9.57;8.73;;;;;;;32.17;58.43;100901.63;5083244;27;70845;-42
2022/11/12 03:42:21;;;;;;;9.27;8.38;;;;;;;32.24;58.75;100908.63;5094107;27;66027;-41
2022/11/12 03:45:10;;;;;;;10.90;8.77;;;;;;;32.25;58.74;100910.28;5080833;27;70158;-42
2022/11/12 03:48:00;;;;;;;9.63;8.85;;;;;;;32.27;58.58;100912.78;5081663;27;66723;-41
2022/11/12 03:50:49;;;;;;;10.32;8.10;;;;;;;32.18;58.49;100903.28;5080705;27;70595;-41
2022/11/12 03:53:38;;;;;;;9.65;8.60;;;;;;;31.90;58.48;100850.41;5083325;27;66384;-40
2022/11/12 03:56:26;;;;;;;10.05;9.13;;;;;;;32.29;58.70;100907.94;5082087;27;70758;-41
2022/11/12 03:59:16;;;;;;;9.98;8.98;;;;;;;32.25;58.27;100914.88;5082288;27;66736;-40
2022/11/12 04:02:05;;;;;;;9.63;8.80;;;;;;;32.15;58.24;100888.31;5081088;27;70750;-41
2022/11/12 04:11:16;;;;;;;9.57;8.82;;;;;;;32.31;58.28;100897.66;5081557;27;65528;-40
2022/11/12 04:14:05;;;;;;;11.25;9.00;;;;;;;32.33;58.37;100892.03;5088025;27;70874;-41
2022/11/12 04:23:10;;;;;;;9.60;8.57;;;;;;;32.33;58.48;100873.84;5081401;27;65898;-45
2022/11/12 04:32:13;;;;;;;10.07;9.10;;;;;;;32.35;60.11;100827.47;5085520;27;69979;-43
2022/11/12 04:35:05;;;;;;;11.57;10.27;;;;;;;32.30;61.21;100825.44;5081522;27;65731;-43
2022/11/12 04:37:54;;;;;;;14.63;10.65;;;;;;;32.37;61.17;100823.44;5082453;27;70123;-43
2022/11/12 04:46:58;;;;;;;15.98;10.65;;;;;;;32.44;61.33;100802.47;5096288;27;66081;-43
2022/11/12 04:49:47;;;;;;;14.65;10.65;;;;;;;32.49;61.10;100786.34;5082065;27;70217;-42
2022/11/12 04:52:37;;;;;;;18.38;10.77;;;;;;;32.50;61.24;100781.72;5080872;27;66145;-44
2022/11/12 04:55:26;;;;;;;12.95;10.05;;;;;;;32.49;60.20;100761.91;5079398;27;70278;-43
2022/11/12 04:58:15;;;;;;;11.88;10.77;;;;;;;32.54;60.41;100763.94;5083599;27;66362;-43
2022/11/12 05:01:06;;;;;;;16.65;10.85;;;;;;;32.59;60.40;100776.78;5086532;27;70250;-44
2022/11/12 05:03:55;;;;;;;14.52;10.73;;;;;;;32.59;60.59;100768.63;5081908;27;65911;-43
2022/11/12 05:06:50;;;;;;;12.80;10.30;;;;;;;32.60;60.63;100764.88;5087176;27;70586;-42
2022/11/12 05:09:40;;;;;;;14.32;11.25;;;;;;;32.58;60.70;100762.38;5080103;27;66453;-42
2022/11/12 05:12:29;;;;;;;12.98;10.50;;;;;;;32.62;60.57;100751.88;5088493;27;69905;-47
2022/11/12 05:15:20;;;;;;;12.02;10.45;;;;;;;32.27;60.44;100690.19;5080626;27;66549;-42
2022/11/12 05:18:09;;;;;;;12.65;10.27;;;;;;;32.68;60.46;100745.50;5081575;27;70386;-42
2022/11/12 05:22:03;;;;;;;12.38;10.57;;;;;;;32.68;60.19;100734.63;5086699;27;65707;-45
2022/11/12 05:24:07;;;;;;;13.07;10.95;;;;;;;32.67;60.05;100716.69;5089642;27;69455;-42
2022/11/12 05:27:19;;;;;;;13.13;11.75;;;;;;;32.72;60.27;100731.22;5082970;27;65907;-42
2022/11/12 05:30:09;;;;;;;11.30;10.20;;;;;;;32.65;60.10;100695.22;5088393;27;70002;-43
2022/11/12 05:32:58;;;;;;;11.75;10.70;;;;;;;32.75;60.14;100705.47;5084711;27;66328;-41
2022/11/12 05:35:47;;;;;;;14.15;10.98;;;;;;;32.70;59.94;100691.75;5083364;27;70069;-43
2022/11/12 05:38:38;;;;;;;12.10;10.90;;;;;;;32.81;60.09;100695.53;5080460;27;66444;-42
2022/11/12 05:41:27;;;;;;;12.40;10.10;;;;;;;32.74;60.13;100673.94;5078249;27;69867;-42
2022/11/12 05:44:36;;;;;;;11.45;10.30;;;;;;;32.85;60.17;100680.44;5087618;27;66296;-41
2022/11/12 05:47:26;;;;;;;13.80;9.98;;;;;;;32.86;60.24;100672.03;5078227;27;69141;-42
2022/11/12 05:50:15;;;;;;;12.38;10.95;;;;;;;32.85;60.11;100658.69;5093930;27;65706;-39
2022/11/12 05:53:04;;;;;;;11.35;10.35;;;;;;;32.90;60.05;100651.47;5083091;27;70057;-42
2022/11/12 05:55:53;;;;;;;11.25;10.07;;;;;;;32.91;60.38;100641.44;5083695;27;66467;-43
2022/11/12 05:58:43;;;;;;;11.73;10.48;;;;;;;32.94;59.82;100633.63;5082857;27;70681;-42
2022/11/12 06:01:33;;;;;;;10.60;9.40;;;;;;;32.96;60.04;100627.97;5085632;27;68014;-43
2022/11/12 06:04:23;;;;;;;11.52;10.57;;;;;;;32.92;59.78;100605.84;5091994;27;70243;-42
2022/11/12 06:07:12;;;;;;;13.55;9.95;;;;;;;33.00;60.15;100617.47;5089273;27;65628;-43
2022/11/12 06:10:01;;;;;;;13.70;10.30;;;;;;;33.02;60.18;100609.91;5082684;27;68443;-44
2022/11/12 06:12:51;;;;;;;11.10;10.10;;;;;;;33.04;59.87;100607.75;5094846;27;65821;-42
2022/11/12 06:15:40;;;;;;;11.13;9.95;;;;;;;33.00;60.25;100590.28;5089288;27;70118;-42
2022/11/12 06:18:30;;;;;;;11.52;10.20;;;;;;;33.07;59.98;100585.50;5087693;27;64559;-41
2022/11/12 06:21:23;;;;;;;10.45;9.45;;;;;;;33.09;59.95;100586.94;5088362;27;69744;-42
2022/11/12 06:24:12;;;;;;;10.70;9.80;;;;;;;33.06;59.90;100562.13;5085611;27;66393;-42
2022/11/12 06:27:01;;;;;;;10.43;9.40;;;;;;;33.08;59.97;100565.44;5081606;27;70871;-43
2022/11/12 06:29:50;;;;;;;10.95;9.85;;;;;;;33.11;59.86;100564.97;5085705;27;65685;-43
2022/11/12 06:32:40;;;;;;;15.07;10.10;;;;;;;33.10;60.02;100566.03;5089273;27;69073;-43
2022/11/12 06:35:29;;;;;;;10.57;9.48;;;;;;;33.11;60.35;100563.06;5089005;27;66313;-43
2022/11/12 06:38:18;;;;;;;11.77;10.43;;;;;;;33.15;60.11;100569.66;5089337;27;69897;-42
2022/11/12 06:41:10;;;;;;;12.35;10.52;;;;;;;33.00;60.93;100544.09;5084408;27;65725;-42
2022/11/12 06:43:59;;;;;;;10.40;9.35;;;;;;;33.15;60.22;100561.53;5087849;27;70641;-42
2022/11/12 06:46:49;;;;;;;11.93;9.15;;;;;;;33.17;60.21;100563.16;5085804;27;66504;-42
2022/11/12 06:49:38;;;;;;;10.73;9.70;;;;;;;33.18;60.16;100565.63;5086417;27;70237;-42
2022/11/12 06:52:27;;;;;;;10.35;9.35;;;;;;;33.17;60.29;100550.38;5094213;27;65165;-42
2022/11/12 06:55:16;;;;;;;10.13;9.23;;;;;;;33.19;60.08;100559.13;5084803;27;70342;-42
2022/11/12 06:58:05;;;;;;;10.63;9.52;;;;;;;33.20;60.34;100568.91;5082158;27;66789;-42
2022/11/12 07:00:55;;;;;;;10.45;9.48;;;;;;;33.21;60.25;100570.59;5091420;27;70695;-42
2022/11/12 07:03:44;;;;;;;10.38;9.55;;;;;;;33.11;60.72;100570.38;5085225;27;66244;-42
2022/11/12 07:06:34;;;;;;;10.55;9.52;;;;;;;32.80;60.75;100510.00;5082651;27;70332;-42
2022/11/12 07:09:24;;;;;;;10.18;9.27;;;;;;;33.20;60.49;100579.78;5084380;27;66816;-42
2022/11/12 07:12:13;;;;;;;10.40;9.57;;;;;;;33.19;60.68;100578.16;5083673;27;70247;-42
2022/11/12 07:15:02;;;;;;;12.38;9.88;;;;;;;33.16;60.72;100589.50;5084401;27;65093;-42
2022/11/12 07:17:51;;;;;;;14.05;9.68;;;;;;;33.18;60.70;100606.38;5089431;27;70051;-42
2022/11/12 07:20:40;;;;;;;10.93;9.82;;;;;;;33.18;60.98;100614.53;5085576;27;65784;-42
2022/11/12 07:23:31;;;;;;;12.02;9.95;;;;;;;32.75;60.73;100547.94;5092416;27;70228;-43
2022/11/12 07:26:28;;;;;;;16.70;12.10;;;;;;;33.18;61.97;100619.97;5082591;27;66042;-43
2022/11/12 07:29:17;;;;;;;15.98;12.48;;;;;;;33.10;62.35;100609.50;5089829;27;69941;-43
2022/11/12 07:32:26;;;;;;;17.92;13.40;;;;;;;33.13;63.16;100617.19;5083711;27;66346;-42
2022/11/12 07:35:16;;;;;;;16.30;13.90;;;;;;;33.11;63.30;100619.31;5085790;27;69689;-42
2022/11/12 07:38:05;;;;;;;21.38;13.45;;;;;;;33.11;63.47;100622.03;5080245;27;65752;-43
2022/11/12 07:41:01;;;;;;;21.60;14.15;;;;;;;33.09;63.61;100626.88;5080366;27;70140;-41
2022/11/12 07:43:52;;;;;;;16.08;12.98;;;;;;;33.08;63.56;100628.75;5084084;27;66339;-42
2022/11/12 07:46:41;;;;;;;22.73;14.30;;;;;;;33.04;63.78;100624.03;5077237;27;69257;-43
2022/11/12 07:49:30;;;;;;;19.48;13.23;;;;;;;33.06;63.38;100611.06;5082091;27;64580;-43
2022/11/12 07:52:20;;;;;;;16.90;13.70;;;;;;;32.90;63.48;100591.72;5080301;27;70289;-42
2022/11/12 07:55:09;;;;;;;17.55;13.40;;;;;;;33.01;63.53;100611.75;5085160;27;65707;-42
2022/11/12 07:57:59;;;;;;;16.38;14.05;;;;;;;33.01;64.21;100621.81;5092528;27;70892;-42
2022/11/12 08:00:49;;;;;;;18.90;13.95;;;;;;;32.91;65.24;100615.09;5083679;27;66439;-43
2022/11/12 08:03:39;;;;;;;18.08;13.90;;;;;;;32.73;66.50;100596.22;5085727;27;70124;-45
2022/11/12 08:06:29;;;;;;;25.60;15.48;;;;;;;32.55;67.59;100599.94;5085279;27;66162;-41
2022/11/12 08:09:18;;;;;;;24.58;14.70;;;;;;;32.56;68.14;100614.31;5089530;27;69994;-42
2022/11/12 08:12:07;;;;;;;19.52;13.27;;;;;;;32.28;68.46;100607.72;5082498;27;65429;-46
2022/11/12 08:14:57;;;;;;;18.42;12.75;;;;;;;32.18;68.97;100638.16;5088371;27;70584;-44
2022/11/12 08:17:46;;;;;;;22.48;14.07;;;;;;;31.87;69.42;100638.44;5083552;27;65949;-44
2022/11/12 08:20:35;;;;;;;19.13;13.35;;;;;;;31.82;70.30;100655.41;5080729;27;69443;-43
2022/11/12 08:23:24;;;;;;;20.40;13.18;;;;;;;31.86;70.80;100663.91;5089855;27;64819;-44
2022/11/12 08:26:16;;;;;;;19.48;12.25;;;;;;;31.72;71.10;100636.16;5085820;27;70414;-43
2022/11/12 08:29:05;;;;;;;16.15;11.35;;;;;;;31.88;68.95;100654.47;5082734;27;66914;-42
2022/11/12 08:31:55;;;;;;;12.52;10.27;;;;;;;32.08;68.85;100665.03;5090798;27;69600;-42
2022/11/12 08:34:45;;;;;;;14.82;11.40;;;;;;;32.17;68.14;100670.94;5085058;27;65632;-42
2022/11/12 08:37:34;;;;;;;18.45;11.13;;;;;;;32.17;67.92;100668.22;5090410;27;70236;-42
2022/11/12 08:40:23;;;;;;;15.93;12.50;;;;;;;32.29;67.87;100690.81;5080049;27;66192;-42
2022/11/12 08:43:12;;;;;;;13.38;11.93;;;;;;;32.25;67.75;100676.84;5089668;27;70429;-42
2022/11/12 08:46:03;;;;;;;13.50;11.88;;;;;;;31.84;67.63;100593.59;5081881;27;65406;-43
2022/11/12 08:48:53;;;;;;;12.90;11.65;;;;;;;32.35;67.69;100681.72;5081638;27;69664;-40
2022/11/12 08:51:42;;;;;;;12.63;11.40;;;;;;;32.36;67.20;100668.97;5083097;27;66682;-41
2022/11/12 08:54:32;;;;;;;17.80;12.00;;;;;;;32.40;67.09;100679.13;5082734;27;69923;-42
2022/11/12 08:57:21;;;;;;;13.27;11.52;;;;;;;32.40;67.20;100665.56;5085745;27;66017;-42
2022/11/12 09:00:13;;;;;;;13.30;12.05;;;;;;;32.43;67.54;100654.22;5089935;27;70610;-40
2022/11/12 09:03:05;;;;;;;12.48;11.43;;;;;;;32.09;66.92;100592.59;5085084;27;66255;-42
2022/11/12 09:05:54;;;;;;;11.60;10.50;;;;;;;32.41;66.97;100634.63;5081571;27;69719;-40
2022/11/12 09:08:43;;;;;;;12.88;10.45;;;;;;;32.40;66.70;100630.25;5085434;27;65933;-42
2022/11/12 09:11:32;;;;;;;11.80;10.63;;;;;;;32.41;66.54;100647.38;5087717;27;70419;-42
2022/11/12 09:14:21;;;;;;;14.27;11.98;;;;;;;32.39;66.68;100647.59;5095526;27;67072;-40
2022/11/12 09:17:11;;;;;;;15.18;13.30;;;;;;;32.43;66.47;100651.50;5081929;27;70001;-45
2022/11/12 09:20:00;;;;;;;27.10;21.73;;;;;;;32.33;69.09;100645.81;5094494;27;66040;-41
2022/11/12 09:22:50;;;;;;;24.70;20.73;;;;;;;32.25;69.67;100654.31;5085766;27;70245;-44
2022/11/12 09:25:40;;;;;;;27.55;20.40;;;;;;;32.18;70.84;100659.03;5094282;27;66513;-43
2022/11/12 09:28:29;;;;;;;45.17;30.35;;;;;;;32.10;71.43;100653.97;5090763;27;70444;-40
2022/11/12 09:31:18;;;;;;;72.10;44.63;;;;;;;32.09;71.35;100660.44;5094222;27;65749;-42
2022/11/12 09:34:08;;;;;;;75.13;46.85;;;;;;;32.02;71.79;100669.53;5091297;27;69678;-45
2022/11/12 09:36:57;;;;;;;83.07;53.10;;;;;;;32.03;72.56;100673.06;5082814;27;66821;-42
2022/11/12 09:39:46;;;;;;;74.35;47.53;;;;;;;32.02;72.50;100669.53;5087687;27;69574;-42
2022/11/12 09:42:36;;;;;;;72.40;44.83;;;;;;;31.93;72.66;100660.06;5096755;27;66375;-41
2022/11/12 09:45:31;;;;;;;68.22;43.63;;;;;;;31.97;73.92;100685.66;5092845;27;70336;-41
2022/11/12 09:48:31;;;;;;;76.25;38.33;;;;;;;31.52;73.80;100618.31;5085828;27;66628;-42
2022/11/12 09:51:31;;;;;;;56.17;33.70;;;;;;;31.49;74.19;100624.19;5085376;27;70411;-45
2022/11/12 09:54:24;;;;;;;32.42;24.67;;;;;;;31.68;71.52;100634.97;5085413;27;66174;-42
2022/11/12 09:57:13;;;;;;;28.33;21.33;;;;;;;32.10;70.87;100705.53;5086726;27;69497;-45
2022/11/12 10:00:13;;;;;;;23.42;17.92;;;;;;;31.61;70.14;100632.34;5086915;27;65493;-42
2022/11/12 10:03:28;;;;;;;23.52;16.30;;;;;;;32.04;70.79;100726.28;5086949;27;69550;-44
2022/11/12 10:06:28;;;;;;;19.15;14.98;;;;;;;32.09;70.03;100714.69;5087478;27;66298;-43
2022/11/12 10:09:29;;;;;;;17.10;15.30;;;;;;;32.17;69.77;100728.75;5093122;27;69997;-42
2022/11/12 10:12:35;;;;;;;18.83;17.15;;;;;;;31.72;69.38;100661.38;5085193;27;66904;-43
2022/11/12 10:19:03;;;;;;;17.83;15.45;;;;;;;32.20;69.43;100747.28;5087381;27;66503;-43
2022/11/12 10:22:06;;;;;;;17.40;15.70;;;;;;;32.25;69.13;100747.41;5085406;27;70444;-44
2022/11/12 10:24:57;;;;;;;16.05;14.45;;;;;;;32.18;68.95;100740.44;5084216;27;64751;-44
2022/11/12 10:27:55;;;;;;;16.00;14.63;;;;;;;32.27;69.06;100767.03;5090497;27;70233;-43
2022/11/12 10:30:45;;;;;;;14.98;13.70;;;;;;;32.27;68.94;100752.63;5091881;27;65716;-45
2022/11/12 10:33:34;;;;;;;14.65;13.35;;;;;;;32.30;68.93;100751.34;5089148;27;69697;-42
2022/11/12 10:36:27;;;;;;;14.65;13.43;;;;;;;31.94;68.73;100691.56;5088778;27;65665;-43
2022/11/12 10:39:36;;;;;;;13.30;12.25;;;;;;;32.22;68.89;100763.34;5091625;27;69991;-42
2022/11/12 10:42:26;;;;;;;14.57;13.23;;;;;;;32.26;69.00;100762.66;5086777;27;66717;-46
2022/11/12 10:45:21;;;;;;;13.50;12.20;;;;;;;32.16;68.74;100742.56;5082838;27;68957;-43
2022/11/12 10:48:32;;;;;;;12.82;11.73;;;;;;;32.19;69.38;100763.81;5084600;27;65116;-43
2022/11/12 10:51:32;;;;;;;13.27;12.20;;;;;;;32.26;68.31;100775.38;5092854;27;70232;-46
2022/11/12 10:54:27;;;;;;;14.40;13.10;;;;;;;32.24;68.66;100772.09;5085372;27;65671;-43
2022/11/12 10:57:24;;;;;;;14.35;12.95;;;;;;;31.90;68.62;100717.47;5087145;27;69498;-45
2022/11/12 11:00:18;;;;;;;13.98;12.82;;;;;;;31.76;69.03;100684.28;5088779;27;66700;-43
2022/11/12 11:03:26;;;;;;;15.70;14.20;;;;;;;31.93;71.30;100738.75;5091595;27;69551;-42
2022/11/12 11:06:15;;;;;;;15.70;14.10;;;;;;;32.03;72.30;100771.53;5105178;27;64561;-41
2022/11/12 11:09:16;;;;;;;17.45;15.40;;;;;;;31.81;72.83;100767.66;5089764;27;70186;-42
2022/11/12 11:12:21;;;;;;;21.90;19.65;;;;;;;31.74;72.11;100792.16;5089707;27;65536;-41
2022/11/12 11:15:13;;;;;;;28.80;20.30;;;;;;;31.47;72.46;100780.81;5083361;27;69347;-43
2022/11/12 11:18:02;;;;;;;22.73;20.10;;;;;;;31.28;72.86;100784.56;5091922;27;66264;-41
2022/11/12 11:21:07;;;;;;;25.88;20.30;;;;;;;30.33;72.84;100663.81;5080723;27;69995;-41
2022/11/12 11:24:03;;;;;;;25.63;19.70;;;;;;;30.49;73.40;100697.59;5082133;28;66465;-40
2022/11/12 11:27:25;;;;;;;26.17;22.15;;;;;;;30.86;73.30;100787.06;5079913;27;70212;-40
2022/11/12 11:30:20;;;;;;;29.38;19.98;;;;;;;30.90;73.71;100791.81;5080689;27;66726;-40
2022/11/12 11:33:20;;;;;;;25.75;18.20;;;;;;;30.86;72.99;100797.91;5085231;27;70215;-42
2022/11/12 11:36:32;;;;;;;29.88;17.40;;;;;;;30.82;73.84;100807.53;5091076;27;66120;-42
2022/11/12 11:39:56;;;;;;;24.75;16.70;;;;;;;30.63;74.22;100815.53;5093114;27;70243;-44
2022/11/12 11:43:03;;;;;;;21.10;18.98;;;;;;;30.82;74.24;100807.53;5022922;28;65003;-41
2022/11/12 11:46:04;;;;;;;30.85;25.60;;;;;;;30.87;73.88;100816.66;5079038;27;70112;-44
2022/11/12 11:49:16;;;;;;;33.47;27.27;;;;;;;30.88;74.28;100809.34;5082301;27;66296;-42
2022/11/12 11:52:33;;;;;;;37.43;27.07;;;;;;;30.72;74.56;100814.22;5055302;27;70435;-40
2022/11/12 11:55:37;;;;;;;33.25;26.13;;;;;;;29.91;74.70;100678.88;5085143;27;66423;-40
2022/11/12 11:58:52;;;;;;;34.83;26.17;;;;;;;30.72;74.73;100818.81;5087476;27;70391;-39
2022/11/12 12:01:53;;;;;;;29.40;25.23;;;;;;;30.83;75.76;100828.13;5087965;27;67225;-42
2022/11/12 12:05:04;;;;;;;26.30;23.42;;;;;;;30.92;75.66;100845.75;5084877;27;70392;-40
2022/11/12 12:08:31;;;;;;;25.02;22.40;;;;;;;30.95;75.96;100845.31;5080682;27;66926;-41
2022/11/12 12:11:23;;;;;;;32.40;22.67;;;;;;;31.09;75.20;100846.88;5087003;27;70772;-41
2022/11/12 12:14:20;;;;;;;;;;;;;;;30.96;75.81;100855.09;5092678;27;66330;-40
2022/11/12 12:17:22;;;;;;;24.27;21.73;;;;;;;31.02;74.65;100840.66;5082440;27;70578;-44
2022/11/12 12:20:40;;;;;;;23.92;21.35;;;;;;;31.19;74.44;100875.34;5085048;27;66629;-43
2022/11/12 12:24:10;;;;;;;28.63;22.10;;;;;;;31.19;74.61;100875.34;5083695;27;70339;-44
2022/11/12 12:27:02;;;;;;;24.33;21.30;;;;;;;30.86;74.11;100797.91;5057270;27;65559;-42
2022/11/12 12:30:16;;;;;;;26.30;21.88;;;;;;;30.47;73.65;100729.47;5087483;27;70157;-41
2022/11/12 12:33:14;;;;;;;25.40;20.52;;;;;;;31.31;74.67;100873.53;5086153;27;65665;-40
2022/11/12 12:36:26;;;;;;;26.42;22.38;;;;;;;31.27;74.82;100877.75;5084378;27;69240;-42
2022/11/12 12:39:20;;;;;;;24.27;21.83;;;;;;;31.00;74.98;100831.94;5091305;27;65343;-42
2022/11/12 12:42:25;;;;;;;26.25;21.52;;;;;;;31.31;74.88;100892.50;5088423;27;70715;-41
2022/11/12 12:45:41;;;;;;;25.60;21.67;;;;;;;31.26;74.34;100895.06;5084138;27;66694;-42
2022/11/12 12:48:43;;;;;;;25.23;22.27;;;;;;;30.86;74.95;100824.97;5082191;27;70102;-42
2022/11/12 12:51:34;;;;;;;28.02;21.13;;;;;;;30.72;73.13;100811.50;5090338;27;66658;-41
2022/11/12 12:54:38;;;;;;;27.40;19.40;;;;;;;31.11;70.99;100904.34;5085096;27;69909;-39
2022/11/12 12:57:30;;;;;;;30.50;18.80;;;;;;;31.07;70.16;100903.16;5099628;27;66274;-42
2022/11/12 13:00:29;;;;;;;23.48;17.63;;;;;;;30.49;68.28;100833.75;5084687;27;69779;-40
2022/11/12 13:03:43;;;;;;;24.85;18.35;;;;;;;30.86;67.77;100911.66;5087034;27;66397;-38
2022/11/12 13:06:38;;;;;;;18.67;16.27;;;;;;;30.87;66.86;100921.41;5083222;27;68619;-41
2022/11/12 13:09:28;;;;;;;15.45;13.77;;;;;;;30.80;65.96;100917.94;5083825;27;65744;-41
2022/11/12 13:15:14;;;;;;;19.80;14.65;;;;;;;30.69;64.40;100904.00;5084357;27;66669;-40
2022/11/12 13:18:12;;;;;;;15.10;13.80;;;;;;;29.78;63.72;100764.47;5087775;27;70474;-42
2022/11/12 13:21:15;;;;;;;22.60;14.05;;;;;;;30.64;62.57;100919.25;5086832;27;66054;-40
2022/11/12 13:24:09;;;;;;;15.50;13.63;;;;;;;29.67;61.96;100781.34;5082047;27;70239;-42
2022/11/12 13:27:00;;;;;;;14.02;12.93;;;;;;;30.52;61.64;100929.13;5082841;27;66623;-43
2022/11/12 13:29:49;;;;;;;15.55;12.25;;;;;;;30.49;61.30;100927.69;5093810;27;71088;-41
2022/11/12 13:33:17;;;;;;;13.98;12.75;;;;;;;30.34;60.29;100929.81;5087152;27;66223;-41
2022/11/12 13:36:27;;;;;;;12.88;11.80;;;;;;;30.33;60.11;100952.53;5090042;27;69456;-40
2022/11/12 13:39:19;;;;;;;15.95;12.55;;;;;;;30.36;59.66;100933.16;5090986;27;66989;-41
2022/11/12 13:45:25;;;;;;;13.05;11.85;;;;;;;29.74;58.67;100857.84;5089958;27;66939;-43